Time;durP1;ratioP1;P1;durP2;ratioP2;P2;SDS_P1;SDS_P2;PMS_P1;PMS_P2;Temp;Humidity;BMP_temperature;BMP_pressure;BME280_temperature;BME280_humidity;BME280_pressure;Samples;Min_cycle;Max_cycle;Signal;HPM_P1;HPM_P2
2022/12/31 12:45:47;;;;;;;9.07;2.13;;;;;;;;;;5134317;27;86379;-68
2022/12/31 12:48:17;;;;;;;;;;;;;;;;;;5117126;27;86957;-68
2022/12/31 12:50:45;;;;;;;4.38;1.55;;;;;;;;;;5117082;27;117657;-68
2022/12/31 12:53:21;;;;;;;11.98;2.38;;;;;;;;;;5116149;27;87609;-68
2022/12/31 12:55:56;;;;;;;10.40;1.90;;;;;;;;;;5117108;27;87928;-70
2022/12/31 12:58:41;;;;;;;6.18;2.08;;;;;;;;;;5115846;27;87233;-69
2022/12/31 13:01:26;;;;;;;12.65;2.25;;;;;;;;;;5115435;27;88096;-69
2022/12/31 13:03:56;;;;;;;5.55;1.85;;;;;;;;;;5113055;27;87910;-69
2022/12/31 13:06:57;;;;;;;4.85;1.83;;;;;;;;;;5119858;27;88011;-69
2022/12/31 13:09:32;;;;;;;6.03;1.70;;;;;;;;;;5084574;27;87876;-70
2022/12/31 13:12:19;;;;;;;8.50;1.60;;;;;;;;;;5076764;27;87272;-70
2022/12/31 13:14:45;;;;;;;8.80;3.20;;;;;;;;;;5095254;27;87514;-69
2022/12/31 13:17:17;;;;;;;5.50;1.77;;;;;;;;;;5093749;27;87845;-68
2022/12/31 13:19:44;;;;;;;6.88;2.38;;;;;;;;;;5093577;27;88047;-68
2022/12/31 13:22:15;;;;;;;7.45;1.60;;;;;;;;;;5073613;27;87141;-69
2022/12/31 13:24:41;;;;;;;5.18;2.00;;;;;;;;;;5094343;27;88668;-69
2022/12/31 13:27:10;;;;;;;8.55;1.95;;;;;;;;;;5093675;27;87293;-69
2022/12/31 13:29:38;;;;;;;9.63;2.30;;;;;;;;;;5090937;27;87495;-69
2022/12/31 13:32:06;;;;;;;8.95;2.00;;;;;;;;;;5094124;27;88267;-67
2022/12/31 13:34:34;;;;;;;8.25;2.10;;;;;;;;;;5060553;27;87534;-67
2022/12/31 13:37:05;;;;;;;9.10;2.00;;;;;;;;;;5073501;27;86994;-67
2022/12/31 13:39:36;;;;;;;6.82;2.65;;;;;;;;;;5073844;27;87331;-67
2022/12/31 13:42:17;;;;;;;8.20;3.00;;;;;;;;;;5072360;27;88273;-67
2022/12/31 13:44:55;;;;;;;7.47;2.67;;;;;;;;;;5071651;27;87954;-68
2022/12/31 13:47:21;;;;;;;9.88;2.08;;;;;;;;;;5094613;27;87239;-69
2022/12/31 13:49:53;;;;;;;7.47;2.13;;;;;;;;;;5076727;27;87417;-69
2022/12/31 13:52:31;;;;;;;6.97;1.92;;;;;;;;;;5075456;27;90133;-69
2022/12/31 13:55:16;;;;;;;6.70;2.13;;;;;;;;;;5092002;27;87421;-70
2022/12/31 13:57:44;;;;;;;4.18;2.40;;;;;;;;;;5081307;27;86841;-69
2022/12/31 14:00:25;;;;;;;7.97;2.47;;;;;;;;;;5081724;27;89384;-69
2022/12/31 14:02:51;;;;;;;;;;;;;;;;;;5077864;27;87556;-69
2022/12/31 14:05:22;;;;;;;9.45;3.17;;;;;;;;;;5082037;27;118107;-70
2022/12/31 14:07:52;;;;;;;9.02;2.75;;;;;;;;;;5081312;27;87299;-69
2022/12/31 14:10:18;;;;;;;;;;;;;;;;;;5081168;27;86991;-69
2022/12/31 14:12:45;;;;;;;11.55;4.63;;;;;;;;;;5079433;27;118554;-70
2022/12/31 14:15:11;;;;;;;14.93;4.90;;;;;;;;;;5083531;27;88006;-69
2022/12/31 14:17:48;;;;;;;9.75;2.90;;;;;;;;;;5081404;27;87891;-69
2022/12/31 14:20:15;;;;;;;9.10;4.03;;;;;;;;;;5095582;27;88042;-69
2022/12/31 14:22:50;;;;;;;6.60;1.88;;;;;;;;;;5078100;27;87551;-69
2022/12/31 14:25:20;;;;;;;6.22;2.10;;;;;;;;;;5064259;27;88294;-67
2022/12/31 14:27:47;;;;;;;12.95;4.55;;;;;;;;;;5079102;27;88231;-69
2022/12/31 14:30:20;;;;;;;10.00;2.80;;;;;;;;;;5080244;27;87554;-69
2022/12/31 14:33:19;;;;;;;9.40;3.28;;;;;;;;;;5062598;27;86771;-70
2022/12/31 14:35:51;;;;;;;9.63;4.10;;;;;;;;;;4977058;28;88346;-69
2022/12/31 14:38:18;;;;;;;6.53;2.22;;;;;;;;;;4978199;28;88150;-68
2022/12/31 14:40:52;;;;;;;11.60;3.08;;;;;;;;;;4977665;28;87967;-68
2022/12/31 14:43:35;;;;;;;4.95;2.22;;;;;;;;;;4977221;28;86897;-69
2022/12/31 14:46:17;;;;;;;8.57;2.00;;;;;;;;;;4958276;28;87876;-69
2022/12/31 14:48:48;;;;;;;10.77;3.00;;;;;;;;;;4953133;28;88631;-70
2022/12/31 14:51:14;;;;;;;11.40;4.25;;;;;;;;;;4976279;28;86986;-71
2022/12/31 14:53:50;;;;;;;15.55;7.10;;;;;;;;;;4961388;28;88063;-70
2022/12/31 14:56:34;;;;;;;13.88;5.30;;;;;;;;;;4944767;28;87841;-70
2022/12/31 14:59:01;;;;;;;18.63;5.55;;;;;;;;;;4974455;28;87817;-70
2022/12/31 15:01:28;;;;;;;8.38;3.20;;;;;;;;;;4978221;28;87004;-72
2022/12/31 15:03:56;;;;;;;10.13;3.60;;;;;;;;;;4976665;28;88513;-70
2022/12/31 15:06:23;;;;;;;12.70;4.32;;;;;;;;;;4991957;28;88986;-70
2022/12/31 15:09:03;;;;;;;22.52;8.55;;;;;;;;;;4974555;28;88053;-70
2022/12/31 15:11:44;;;;;;;20.20;10.30;;;;;;;;;;5031859;27;87838;-69
2022/12/31 15:14:17;;;;;;;17.88;6.70;;;;;;;;;;5075068;27;89045;-69
2022/12/31 15:16:45;;;;;;;19.70;6.22;;;;;;;;;;5082984;27;88100;-69
2022/12/31 15:19:24;;;;;;;14.43;5.70;;;;;;;;;;5076472;27;91173;-69
2022/12/31 15:21:57;;;;;;;19.00;5.95;;;;;;;;;;5079467;27;87923;-70
2022/12/31 15:24:25;;;;;;;24.42;8.05;;;;;;;;;;5080045;27;87688;-70
2022/12/31 15:26:53;;;;;;;40.03;15.25;;;;;;;;;;5041264;27;87941;-71
2022/12/31 15:29:27;;;;;;;16.73;3.50;;;;;;;;;;5058683;27;90588;-71
2022/12/31 15:31:54;;;;;;;39.05;14.50;;;;;;;;;;5075583;27;87582;-67
2022/12/31 15:34:25;;;;;;;15.50;3.78;;;;;;;;;;5078341;27;89256;-69
2022/12/31 15:36:56;;;;;;;46.10;21.98;;;;;;;;;;5076456;27;87484;-69
2022/12/31 15:39:24;;;;;;;16.95;4.22;;;;;;;;;;5058733;27;88915;-70
2022/12/31 15:41:52;;;;;;;18.13;5.13;;;;;;;;;;5076866;27;90400;-70
2022/12/31 15:44:48;;;;;;;18.15;5.40;;;;;;;;;;5080927;27;87018;-69
2022/12/31 15:47:18;;;;;;;17.38;6.45;;;;;;;;;;5061029;27;86999;-68
2022/12/31 15:49:46;;;;;;;14.90;4.88;;;;;;;;;;5073466;27;87707;-70
2022/12/31 15:52:13;;;;;;;12.45;3.75;;;;;;;;;;5077988;27;86825;-70
2022/12/31 15:54:41;;;;;;;17.00;4.70;;;;;;;;;;5077905;27;88320;-69
2022/12/31 15:57:13;;;;;;;16.55;4.13;;;;;;;;;;5078207;27;87428;-69
2022/12/31 15:59:39;;;;;;;22.35;9.27;;;;;;;;;;5076417;27;87798;-68
2022/12/31 16:02:16;;;;;;;26.35;9.05;;;;;;;;;;5076186;27;88004;-68
2022/12/31 16:04:43;;;;;;;24.00;6.05;;;;;;;;;;5078353;27;87819;-68
2022/12/31 16:07:10;;;;;;;20.50;5.88;;;;;;;;;;5062741;27;87689;-69
2022/12/31 16:09:36;;;;;;;14.05;4.00;;;;;;;;;;5060914;27;87341;-69
2022/12/31 16:12:08;;;;;;;13.70;4.30;;;;;;;;;;5078018;27;88450;-69
2022/12/31 16:14:42;;;;;;;23.30;8.50;;;;;;;;;;5078186;27;87976;-69
2022/12/31 16:17:24;;;;;;;15.38;4.97;;;;;;;;;;5079052;27;86685;-69
2022/12/31 16:19:50;;;;;;;19.48;4.82;;;;;;;;;;5077446;27;87481;-69
2022/12/31 16:22:22;;;;;;;20.80;5.28;;;;;;;;;;5058773;27;88118;-70
2022/12/31 16:24:53;;;;;;;20.33;6.43;;;;;;;;;;5070256;27;88439;-69
2022/12/31 16:27:39;;;;;;;;;;;;;;;;;;5074466;27;87085;-69
2022/12/31 16:30:18;;;;;;;12.93;3.30;;;;;;;;;;5054070;27;120251;-71
2022/12/31 16:32:45;;;;;;;14.18;3.05;;;;;;;;;;5040712;27;87445;-70
2022/12/31 16:35:22;;;;;;;18.23;3.75;;;;;;;;;;5074146;27;88318;-70
2022/12/31 16:38:07;;;;;;;18.42;3.42;;;;;;;;;;5051314;27;87911;-70
2022/12/31 16:40:34;;;;;;;17.40;3.97;;;;;;;;;;5048752;27;87331;-70
2022/12/31 16:43:00;;;;;;;15.18;3.47;;;;;;;;;;5077824;27;87853;-70
2022/12/31 16:45:29;;;;;;;20.85;3.55;;;;;;;;;;5073449;27;87364;-70
2022/12/31 16:47:57;;;;;;;20.15;5.05;;;;;;;;;;5077924;27;90257;-69
2022/12/31 16:50:24;;;;;;;14.93;5.13;;;;;;;;;;5073918;27;88165;-70
2022/12/31 16:52:56;;;;;;;17.00;4.63;;;;;;;;;;5042235;27;86859;-69
2022/12/31 16:55:24;;;;;;;18.75;6.07;;;;;;;;;;5046177;27;88222;-70
2022/12/31 16:57:54;;;;;;;23.42;6.97;;;;;;;;;;5075500;27;87316;-70
2022/12/31 17:00:22;;;;;;;18.38;6.80;;;;;;;;;;5065569;27;88846;-69
2022/12/31 17:03:02;;;;;;;15.82;6.97;;;;;;;;;;5077635;27;87768;-69
2022/12/31 17:05:28;;;;;;;22.17;6.47;;;;;;;;;;5077360;27;88081;-69
2022/12/31 17:07:55;;;;;;;19.65;7.03;;;;;;;;;;5075416;27;89544;-68
2022/12/31 17:10:25;;;;;;;15.57;5.50;;;;;;;;;;5075181;27;88752;-69
2022/12/31 17:12:55;;;;;;;24.15;8.77;;;;;;;;;;5079485;27;92238;-69
2022/12/31 17:15:41;;;;;;;;;;;;;;;;;;5077711;27;87950;-69
2022/12/31 17:18:15;;;;;;;16.10;7.28;;;;;;;;;;5077677;27;118099;-70
2022/12/31 17:20:42;;;;;;;13.32;4.25;;;;;;;;;;5075867;27;89299;-69
2022/12/31 17:23:08;;;;;;;12.68;4.20;;;;;;;;;;5076386;27;88190;-69
2022/12/31 17:25:35;;;;;;;14.13;4.63;;;;;;;;;;5059524;27;88840;-69
2022/12/31 17:28:20;;;;;;;12.52;4.70;;;;;;;;;;5057610;27;88573;-69
2022/12/31 17:30:47;;;;;;;13.15;4.40;;;;;;;;;;5075835;27;88085;-68
2022/12/31 17:33:13;;;;;;;19.35;5.68;;;;;;;;;;5077588;27;89165;-69
2022/12/31 17:35:41;;;;;;;11.60;4.35;;;;;;;;;;5091089;27;90121;-70
2022/12/31 17:38:16;;;;;;;11.50;5.32;;;;;;;;;;5061152;27;90555;-69
2022/12/31 17:40:44;;;;;;;27.58;10.27;;;;;;;;;;5080226;27;89079;-69
2022/12/31 17:43:19;;;;;;;14.18;4.95;;;;;;;;;;5077709;27;89440;-68
2022/12/31 17:45:46;;;;;;;13.98;5.05;;;;;;;;;;5048454;27;88699;-68
2022/12/31 17:48:14;;;;;;;16.10;4.60;;;;;;;;;;5077537;27;89272;-68
2022/12/31 17:50:47;;;;;;;12.88;4.72;;;;;;;;;;5067185;27;88095;-69
2022/12/31 17:53:13;;;;;;;14.50;4.80;;;;;;;;;;5057797;27;89092;-69
2022/12/31 17:55:41;;;;;;;11.82;4.32;;;;;;;;;;5077576;27;89426;-68
2022/12/31 17:58:12;;;;;;;13.32;4.70;;;;;;;;;;5082330;27;88163;-68
2022/12/31 18:00:38;;;;;;;15.10;6.20;;;;;;;;;;5078806;27;90082;-68
2022/12/31 18:03:05;;;;;;;19.77;5.82;;;;;;;;;;5080050;27;87983;-68
2022/12/31 18:05:31;;;;;;;14.35;6.13;;;;;;;;;;5059512;27;89820;-68
2022/12/31 18:07:57;;;;;;;16.90;5.35;;;;;;;;;;5077058;27;89586;-68
2022/12/31 18:10:24;;;;;;;29.23;10.52;;;;;;;;;;5069295;27;88433;-69
2022/12/31 18:12:51;;;;;;;19.52;4.32;;;;;;;;;;5076504;27;90258;-67
2022/12/31 18:15:21;;;;;;;18.40;5.65;;;;;;;;;;5080401;27;90001;-69
2022/12/31 18:17:48;;;;;;;12.88;5.60;;;;;;;;;;5077151;27;87829;-69
2022/12/31 18:20:14;;;;;;;15.82;5.13;;;;;;;;;;5081218;27;88429;-69
2022/12/31 18:22:41;;;;;;;15.27;5.20;;;;;;;;;;5080376;27;89056;-69
2022/12/31 18:25:25;;;;;;;16.48;5.53;;;;;;;;;;5078751;27;88721;-70
2022/12/31 18:27:51;;;;;;;15.85;5.35;;;;;;;;;;5073309;27;89780;-69
2022/12/31 18:30:18;;;;;;;12.48;4.93;;;;;;;;;;5068550;27;89650;-69
2022/12/31 18:32:44;;;;;;;10.65;5.38;;;;;;;;;;5078877;27;88786;-68
2022/12/31 18:35:15;;;;;;;14.63;4.82;;;;;;;;;;5079013;27;89124;-69
2022/12/31 18:38:01;;;;;;;10.98;3.80;;;;;;;;;;5080124;27;88253;-69
2022/12/31 18:40:28;;;;;;;12.40;4.40;;;;;;;;;;5060432;27;89049;-68
2022/12/31 18:42:54;;;;;;;13.77;4.07;;;;;;;;;;5078678;27;87620;-68
2022/12/31 18:45:27;;;;;;;14.07;4.13;;;;;;;;;;5059458;27;88245;-68
2022/12/31 18:47:54;;;;;;;11.25;3.75;;;;;;;;;;5058934;27;89213;-68
2022/12/31 18:50:20;;;;;;;13.73;4.28;;;;;;;;;;5068023;27;88767;-69
2022/12/31 18:52:46;;;;;;;31.67;12.52;;;;;;;;;;5061457;27;89616;-70
2022/12/31 18:55:29;;;;;;;22.10;5.35;;;;;;;;;;5059494;27;89109;-70
2022/12/31 18:57:56;;;;;;;18.02;9.82;;;;;;;;;;5078350;27;90586;-71
2022/12/31 19:00:22;;;;;;;58.88;36.22;;;;;;;;;;5077510;27;88910;-71
2022/12/31 19:02:48;;;;;;;19.45;4.38;;;;;;;;;;5077213;27;89183;-69
2022/12/31 19:05:19;;;;;;;23.52;11.75;;;;;;;;;;5080250;27;90113;-68
2022/12/31 19:07:46;;;;;;;19.80;5.45;;;;;;;;;;5078660;27;89113;-67
2022/12/31 19:10:12;;;;;;;19.88;7.53;;;;;;;;;;5078162;27;88766;-68
2022/12/31 19:12:38;;;;;;;10.55;5.25;;;;;;;;;;5059602;27;89014;-68
2022/12/31 19:15:14;;;;;;;10.55;3.95;;;;;;;;;;5077037;27;89299;-68
2022/12/31 19:17:40;;;;;;;15.18;4.47;;;;;;;;;;5061094;27;88530;-68
2022/12/31 19:20:07;;;;;;;16.35;6.15;;;;;;;;;;5079383;27;89416;-68
2022/12/31 19:22:33;;;;;;;16.98;3.92;;;;;;;;;;5077730;27;89028;-68
2022/12/31 19:25:00;;;;;;;15.55;5.13;;;;;;;;;;5078536;27;88186;-68
2022/12/31 19:27:26;;;;;;;8.55;3.35;;;;;;;;;;5075695;27;89708;-71
2022/12/31 19:29:52;;;;;;;15.15;3.65;;;;;;;;;;5078853;27;88075;-71
2022/12/31 19:32:19;;;;;;;21.75;4.38;;;;;;;;;;5079921;27;88786;-69
2022/12/31 19:34:45;;;;;;;10.30;3.65;;;;;;;;;;5077654;27;88015;-69
2022/12/31 19:37:14;;;;;;;17.45;4.18;;;;;;;;;;5060350;27;89946;-67
2022/12/31 19:39:40;;;;;;;22.05;4.13;;;;;;;;;;5057719;27;88758;-67
2022/12/31 19:42:10;;;;;;;24.50;9.90;;;;;;;;;;5063098;27;89010;-69
2022/12/31 19:44:36;;;;;;;14.07;3.83;;;;;;;;;;5061450;27;88308;-71
2022/12/31 19:47:02;;;;;;;20.30;4.72;;;;;;;;;;5081534;27;89174;-71
2022/12/31 19:49:28;;;;;;;17.10;5.65;;;;;;;;;;5077171;27;88262;-69
2022/12/31 19:51:55;;;;;;;32.42;8.98;;;;;;;;;;5074856;27;89829;-70
2022/12/31 19:54:21;;;;;;;25.80;8.23;;;;;;;;;;5075466;27;89342;-69
2022/12/31 19:56:47;;;;;;;21.92;6.63;;;;;;;;;;5079182;27;87659;-70
2022/12/31 19:59:14;;;;;;;24.65;9.70;;;;;;;;;;5075399;27;89384;-69
2022/12/31 20:01:40;;;;;;;20.75;6.63;;;;;;;;;;5075319;27;90432;-68
2022/12/31 20:04:06;;;;;;;15.02;7.18;;;;;;;;;;5072692;27;88783;-70
2022/12/31 20:06:33;;;;;;;17.45;6.45;;;;;;;;;;5080711;27;90559;-67
2022/12/31 20:08:59;;;;;;;24.00;8.77;;;;;;;;;;5082828;27;89288;-71
2022/12/31 20:11:26;;;;;;;14.48;5.13;;;;;;;;;;5077431;27;88972;-71
2022/12/31 20:13:52;;;;;;;14.40;5.60;;;;;;;;;;5077397;27;88748;-71
2022/12/31 20:16:20;;;;;;;24.52;6.00;;;;;;;;;;5079464;27;88197;-70
2022/12/31 20:18:47;;;;;;;21.42;5.30;;;;;;;;;;5055027;27;89025;-70
2022/12/31 20:21:18;;;;;;;32.88;11.27;;;;;;;;;;5051197;27;88533;-70
2022/12/31 20:23:44;;;;;;;33.20;9.48;;;;;;;;;;5060838;27;88997;-70
2022/12/31 20:26:11;;;;;;;17.98;5.03;;;;;;;;;;5079574;27;89224;-70
2022/12/31 20:28:37;;;;;;;17.25;5.15;;;;;;;;;;5077391;27;90171;-68
2022/12/31 20:31:07;;;;;;;23.67;6.97;;;;;;;;;;5079993;27;89147;-68
2022/12/31 20:33:34;;;;;;;18.30;6.25;;;;;;;;;;5065114;27;89074;-69
2022/12/31 20:36:02;;;;;;;24.52;5.97;;;;;;;;;;5077645;27;88531;-69
2022/12/31 20:38:28;;;;;;;23.27;4.60;;;;;;;;;;5060547;27;89692;-68
2022/12/31 20:40:54;;;;;;;16.50;5.40;;;;;;;;;;5077238;27;89355;-70
2022/12/31 20:43:20;;;;;;;15.07;4.82;;;;;;;;;;5078222;27;88931;-70
2022/12/31 20:45:47;;;;;;;31.08;7.85;;;;;;;;;;5077156;27;89393;-71
2022/12/31 20:48:13;;;;;;;19.33;5.60;;;;;;;;;;5054881;27;90131;-70
2022/12/31 20:50:40;;;;;;;16.98;5.07;;;;;;;;;;5069494;27;88056;-69
2022/12/31 20:53:06;;;;;;;16.45;5.38;;;;;;;;;;5077476;27;88957;-68
2022/12/31 20:55:35;;;;;;;21.88;5.38;;;;;;;;;;5076448;27;89001;-70
2022/12/31 20:58:03;;;;;;;21.60;5.95;;;;;;;;;;5077509;27;88947;-70
2022/12/31 21:00:29;;;;;;;20.42;5.60;;;;;;;;;;5077403;27;89103;-69
2022/12/31 21:02:55;;;;;;;14.75;5.05;;;;;;;;;;5058027;27;88576;-68
2022/12/31 21:05:45;;;;;;;17.55;4.70;;;;;;;;;;5077460;27;91320;-70
2022/12/31 21:08:12;;;;;;;23.50;6.35;;;;;;;;;;5081005;27;89304;-70
2022/12/31 21:10:38;;;;;;;47.85;23.60;;;;;;;;;;5063359;27;87699;-70
2022/12/31 21:13:04;;;;;;;17.67;4.95;;;;;;;;;;5061810;27;89589;-70
2022/12/31 21:15:31;;;;;;;25.52;7.30;;;;;;;;;;5082348;27;90750;-69
2022/12/31 21:17:58;;;;;;;26.50;6.93;;;;;;;;;;5061505;27;91269;-69
2022/12/31 21:20:25;;;;;;;21.50;7.25;;;;;;;;;;5078996;27;89282;-71
2022/12/31 21:22:52;;;;;;;17.42;5.25;;;;;;;;;;5081003;27;88191;-70
2022/12/31 21:25:18;;;;;;;27.02;7.32;;;;;;;;;;5080376;27;89347;-71
2022/12/31 21:27:44;;;;;;;17.17;5.30;;;;;;;;;;5079930;27;89447;-71
2022/12/31 21:30:11;;;;;;;18.63;5.00;;;;;;;;;;5080574;27;88097;-68
2022/12/31 21:32:46;;;;;;;16.40;4.90;;;;;;;;;;5081149;27;88813;-69
2022/12/31 21:35:12;;;;;;;14.98;5.50;;;;;;;;;;5082043;27;88045;-69
2022/12/31 21:38:03;;;;;;;24.10;6.13;;;;;;;;;;5076303;27;88028;-69
2022/12/31 21:40:30;;;;;;;22.60;4.88;;;;;;;;;;5076957;27;89195;-68
2022/12/31 21:42:56;;;;;;;45.95;14.15;;;;;;;;;;5061796;27;88677;-69
2022/12/31 21:45:23;;;;;;;29.70;10.30;;;;;;;;;;5077688;27;90044;-68
2022/12/31 21:50:34;;;;;;;25.83;5.65;;;;;;;;;;5079083;27;90331;-68
2022/12/31 21:53:00;;;;;;;19.88;5.43;;;;;;;;;;5061948;27;88747;-68
2022/12/31 21:58:14;;;;;;;24.90;4.95;;;;;;;;;;5083520;27;88435;-68
2022/12/31 22:03:36;;;;;;;16.35;5.05;;;;;;;;;;5078426;27;89035;-69
2022/12/31 22:06:13;;;;;;;32.90;13.63;;;;;;;;;;5080039;27;89595;-68
2022/12/31 22:08:40;;;;;;;21.73;6.10;;;;;;;;;;5077686;27;90240;-71
2022/12/31 22:11:07;;;;;;;80.13;43.75;;;;;;;;;;5079550;27;90073;-67
2022/12/31 22:13:34;;;;;;;23.52;6.28;;;;;;;;;;5075303;27;89560;-69
2022/12/31 22:16:00;;;;;;;25.85;9.65;;;;;;;;;;5075211;27;89042;-68
2022/12/31 22:18:33;;;;;;;19.27;5.80;;;;;;;;;;5060995;27;88524;-69
2022/12/31 22:21:06;;;;;;;35.92;9.18;;;;;;;;;;5083551;27;91134;-68
2022/12/31 22:23:41;;;;;;;20.65;8.13;;;;;;;;;;5077345;27;88535;-68
2022/12/31 22:26:09;;;;;;;29.13;8.48;;;;;;;;;;5056140;27;89109;-68
2022/12/31 22:28:37;;;;;;;14.30;4.43;;;;;;;;;;5079938;27;90425;-68
2022/12/31 22:31:05;;;;;;;23.45;10.68;;;;;;;;;;5061816;27;88206;-68
2022/12/31 22:33:32;;;;;;;12.95;5.10;;;;;;;;;;5077955;27;89934;-68
2022/12/31 22:36:02;;;;;;;14.77;6.65;;;;;;;;;;5071654;27;89492;-68
2022/12/31 22:38:29;;;;;;;12.20;4.45;;;;;;;;;;5080442;27;88008;-67
2022/12/31 22:41:04;;;;;;;25.70;8.93;;;;;;;;;;5079861;27;90240;-68
2022/12/31 22:43:31;;;;;;;19.02;3.97;;;;;;;;;;5082776;27;89274;-69
2022/12/31 22:45:57;;;;;;;17.10;4.57;;;;;;;;;;5077346;27;88971;-69
2022/12/31 22:48:23;;;;;;;19.17;7.15;;;;;;;;;;5078739;27;90073;-69
2022/12/31 22:50:53;;;;;;;23.50;5.90;;;;;;;;;;5079393;27;88380;-71
2022/12/31 22:53:20;;;;;;;22.05;6.75;;;;;;;;;;5079417;27;88564;-71
2022/12/31 22:55:46;;;;;;;23.50;4.93;;;;;;;;;;5078812;27;88930;-68
2022/12/31 22:58:12;;;;;;;17.13;5.82;;;;;;;;;;5060112;27;88814;-68
2022/12/31 23:00:39;;;;;;;16.83;5.03;;;;;;;;;;5059669;27;89627;-69
2022/12/31 23:03:06;;;;;;;51.45;14.65;;;;;;;;;;5079717;27;89122;-70
2022/12/31 23:05:33;;;;;;;48.08;22.55;;;;;;;;;;5063055;27;89101;-70
2022/12/31 23:08:00;;;;;;;74.55;32.25;;;;;;;;;;5074916;27;89040;-71
2022/12/31 23:24:28;;;;;;;53.72;23.83;;;;;;;;;;5073177;27;89929;-70
2022/12/31 23:26:55;;;;;;;41.60;19.40;;;;;;;;;;5068164;27;89451;-70
2022/12/31 23:29:22;;;;;;;60.80;25.83;;;;;;;;;;5073009;27;89528;-69
2022/12/31 23:31:48;;;;;;;115.38;54.47;;;;;;;;;;5067247;27;90315;-70
2022/12/31 23:34:15;;;;;;;56.25;25.52;;;;;;;;;;5054160;27;89778;-70
2022/12/31 23:36:41;;;;;;;60.28;24.75;;;;;;;;;;5052624;27;89257;-70
2022/12/31 23:39:08;;;;;;;45.85;16.30;;;;;;;;;;5077686;27;90030;-70
2022/12/31 23:41:34;;;;;;;67.90;33.88;;;;;;;;;;5059215;27;89748;-70
2022/12/31 23:44:00;;;;;;;51.78;24.48;;;;;;;;;;5075043;27;89373;-70
2022/12/31 23:46:27;;;;;;;35.75;13.32;;;;;;;;;;5077259;27;90112;-70
2022/12/31 23:48:53;;;;;;;33.28;13.40;;;;;;;;;;5076512;27;89580;-70
2022/12/31 23:51:20;;;;;;;33.67;13.15;;;;;;;;;;5058885;27;90160;-70
2022/12/31 23:53:46;;;;;;;46.72;17.88;;;;;;;;;;5057761;27;89875;-70
2022/12/31 23:56:14;;;;;;;42.70;18.33;;;;;;;;;;5076711;27;89257;-70
2022/12/31 23:58:52;;;;;;;40.78;16.83;;;;;;;;;;5071754;27;90035;-69
